createdAt,value
2022-08-05T00:01:35.477Z,101044.88
2022-08-05T00:04:05.077Z,100999.22
2022-08-05T00:06:35.867Z,101033.09
2022-08-05T00:09:05.045Z,101034.84
2022-08-05T00:11:48.399Z,101067.06
2022-08-05T00:14:17.635Z,101037.41
2022-08-05T00:16:52.548Z,101044.63
2022-08-05T00:19:22.664Z,101020.34
2022-08-05T00:21:50.450Z,101031.25
2022-08-05T00:24:19.258Z,101030.41
2022-08-05T00:26:53.348Z,101020.47
2022-08-05T00:29:25.547Z,101028.56
2022-08-05T00:32:13.529Z,101020.47
2022-08-05T00:35:04.655Z,101011.47
2022-08-05T00:37:51.002Z,101033.97
2022-08-05T00:40:27.390Z,101018.78
2022-08-05T00:42:57.656Z,101021.47
2022-08-05T00:45:28.226Z,101019.47
2022-08-05T00:48:06.216Z,101000.66
2022-08-05T00:50:34.182Z,100999.53
2022-08-05T00:53:01.146Z,101017.53
2022-08-05T00:55:42.170Z,101000.28
2022-08-05T00:58:11.522Z,101013.84
2022-08-05T01:00:39.869Z,101004.78
2022-08-05T01:03:07.886Z,100982.50
2022-08-05T01:05:35.527Z,101005.28
2022-08-05T01:08:42.278Z,101010.44
2022-08-05T01:10:58.038Z,101014.09
2022-08-05T01:13:58.835Z,101008.81
2022-08-05T01:16:36.081Z,100985.94
2022-08-05T01:19:19.928Z,100957.81
2022-08-05T01:22:24.142Z,100996.47
2022-08-05T01:25:07.450Z,100977.59
2022-08-05T01:27:56.581Z,100970.38
2022-08-05T01:30:34.631Z,100966.66
2022-08-05T01:33:08.059Z,100961.28
2022-08-05T01:35:50.780Z,100960.28
2022-08-05T01:38:27.331Z,100956.63
2022-08-05T01:41:01.589Z,100940.44
2022-08-05T01:43:31.282Z,100944.09
2022-08-05T01:46:07.122Z,100931.63
2022-08-05T01:48:49.811Z,100946.53
2022-08-05T01:51:18.845Z,100939.56
2022-08-05T01:53:57.246Z,100932.94
2022-08-05T01:58:29.495Z,100941.88
2022-08-05T01:59:21.879Z,100939.91
2022-08-05T02:01:51.954Z,100940.75
2022-08-05T02:04:24.269Z,100939.78
2022-08-05T02:06:52.888Z,100929.84
2022-08-05T02:09:20.636Z,100894.50
2022-08-05T02:11:57.153Z,100927.88
2022-08-05T02:14:32.385Z,100910.69
2022-08-05T02:17:26.249Z,100898.94
2022-08-05T02:20:07.680Z,100876.22
2022-08-05T02:22:43.761Z,100830.28
2022-08-05T02:25:25.720Z,100866.88
2022-08-05T02:27:58.263Z,100844.78
2022-08-05T02:30:34.464Z,100826.31
2022-08-05T02:33:03.188Z,100860.97
2022-08-05T02:35:38.551Z,100858.16
2022-08-05T02:38:19.402Z,100868.81
2022-08-05T02:40:47.565Z,100874.91
2022-08-05T02:43:16.903Z,100872.06
2022-08-05T02:45:51.643Z,100865.72
2022-08-05T02:48:29.549Z,100862.88
2022-08-05T02:51:28.283Z,100867.28
2022-08-05T02:54:35.632Z,100851.09
2022-08-05T02:58:09.385Z,100866.28
2022-08-05T03:00:35.403Z,100866.28
2022-08-05T03:03:24.424Z,100854.06
2022-08-05T03:06:53.762Z,100864.44
2022-08-05T03:09:26.993Z,100863.56
2022-08-05T03:12:24.943Z,100867.06
2022-08-05T03:15:12.420Z,100853.19
2022-08-05T03:17:59.595Z,100829.16
2022-08-05T03:20:48.857Z,100825.63
2022-08-05T03:23:36.153Z,100851.69
2022-08-05T03:26:31.516Z,100854.38
2022-08-05T03:29:19.921Z,100840.88
2022-08-05T03:32:08.574Z,100828.34
2022-08-05T03:34:56.853Z,100809.44
2022-08-05T03:37:46.345Z,100822.97
2022-08-05T03:40:34.483Z,100829.22
2022-08-05T03:44:10.042Z,100830.94
2022-08-05T03:46:32.577Z,100844.41
2022-08-05T03:49:19.711Z,100844.41
2022-08-05T03:52:37.866Z,100840.28
2022-08-05T03:56:05.628Z,100847.84
2022-08-05T03:58:43.013Z,100852.25
2022-08-05T04:01:34.599Z,100856.66
2022-08-05T04:04:23.250Z,100853.09
2022-08-05T04:07:13.790Z,100861.34
2022-08-05T04:10:01.657Z,100851.69
2022-08-05T04:12:50.347Z,100862.47
2022-08-05T04:15:38.545Z,100848.06
2022-08-05T04:18:43.505Z,100884.09
2022-08-05T04:22:09.624Z,100888.53
2022-08-05T04:24:52.671Z,100835.97
2022-08-05T04:27:43.838Z,100845.94
2022-08-05T04:30:44.637Z,100905.16
2022-08-05T04:34:18.904Z,100881.38
2022-08-05T04:36:45.577Z,100901.19
2022-08-05T04:39:37.198Z,100892.97
2022-08-05T04:42:25.487Z,100878.81
2022-08-05T04:45:22.820Z,100907.22
2022-08-05T04:48:29.737Z,100909.78
2022-08-05T04:51:17.632Z,100905.59
2022-08-05T04:54:05.129Z,100923.16
2022-08-05T04:56:56.266Z,100925.84
2022-08-05T04:59:47.944Z,100924.13
2022-08-05T05:02:41.934Z,100938.09
2022-08-05T05:05:30.527Z,100945.06
2022-08-05T05:08:26.733Z,100909.97
2022-08-05T05:11:17.460Z,100950.44
2022-08-05T05:14:04.522Z,100945.78
2022-08-05T05:16:55.681Z,100949.91
2022-08-05T05:19:44.370Z,100944.63
2022-08-05T05:22:34.808Z,100916.47
2022-08-05T05:25:40.449Z,100952.72
2022-08-05T05:28:28.783Z,100918.59
2022-08-05T05:31:16.242Z,100955.06
2022-08-05T05:34:05.621Z,100943.78
2022-08-05T05:36:52.674Z,100961.91
2022-08-05T05:39:39.695Z,100956.88
2022-08-05T05:42:30.321Z,100965.75
2022-08-05T05:45:17.509Z,100948.03
2022-08-05T05:48:06.991Z,100970.38
2022-08-05T05:50:56.277Z,100953.69
2022-08-05T05:53:54.072Z,100975.72
2022-08-05T05:56:48.745Z,100973.53
2022-08-05T05:59:40.354Z,100973.94
2022-08-05T06:02:32.817Z,100986.78
2022-08-05T06:05:28.284Z,100982.38
2022-08-05T06:08:31.605Z,100973.28
2022-08-05T06:11:20.991Z,100982.13
2022-08-05T06:14:07.979Z,100989.22
2022-08-05T06:16:55.013Z,100985.81
2022-08-05T06:19:44.043Z,101000.88
2022-08-05T06:22:46.013Z,101002.56
2022-08-05T06:26:12.466Z,100996.22
2022-08-05T06:28:40.480Z,101005.16
2022-08-05T06:31:30.465Z,101008.56
2022-08-05T06:34:20.167Z,100997.78
2022-08-05T06:37:08.335Z,101017.91
2022-08-05T06:39:55.498Z,100998.25
2022-08-05T06:42:42.477Z,101004.97
2022-08-05T06:46:03.395Z,101017.81
2022-08-05T06:48:56.107Z,100973.69
2022-08-05T06:51:44.790Z,101024.56
2022-08-05T06:54:32.393Z,101024.28
2022-08-05T06:58:02.981Z,101018.16
2022-08-05T07:00:27.497Z,101029.88
2022-08-05T07:03:16.778Z,101025.06
2022-08-05T07:06:05.674Z,101013.53
2022-08-05T07:09:04.387Z,101024.25
2022-08-05T07:11:55.469Z,101025.72
2022-08-05T07:14:45.793Z,101023.16
2022-08-05T07:18:00.459Z,101020.31
2022-08-05T07:20:39.836Z,101036.31
2022-08-05T07:23:29.575Z,101040.28
2022-08-05T07:26:22.449Z,101015.19
2022-08-05T07:29:09.975Z,101030.50
2022-08-05T07:31:40.701Z,101031.09
2022-08-05T07:34:26.238Z,100994.91
2022-08-05T07:36:56.048Z,101019.41
2022-08-05T07:40:03.680Z,101041.44
2022-08-05T07:42:15.102Z,101024.53
2022-08-05T07:44:43.346Z,101007.84
2022-08-05T07:47:20.713Z,101031.25
2022-08-05T07:49:54.509Z,101031.44
2022-08-05T07:52:23.922Z,101042.56
2022-08-05T07:54:53.329Z,101025.28
2022-08-05T07:57:41.491Z,101035.00
2022-08-05T08:00:11.407Z,101061.09
2022-08-05T08:03:15.219Z,101055.25
2022-08-05T08:05:28.249Z,101054.84
2022-08-05T08:07:59.442Z,101066.81
2022-08-05T08:10:48.997Z,101065.53
2022-08-05T08:13:43.009Z,101058.72
2022-08-05T08:16:51.148Z,101053.75
2022-08-05T08:20:43.194Z,101016.38
2022-08-05T08:22:27.509Z,101054.63
2022-08-05T08:24:54.717Z,101055.16
2022-08-05T08:27:51.227Z,101050.59
2022-08-05T08:30:47.699Z,101063.44
2022-08-05T08:33:37.944Z,101019.56
2022-08-05T08:36:38.627Z,101054.72
2022-08-05T08:39:30.375Z,101061.00
2022-08-05T08:42:02.082Z,101053.16
2022-08-05T08:45:20.090Z,101063.84
2022-08-05T08:48:06.328Z,101062.84
2022-08-05T08:50:31.248Z,101070.41
2022-08-05T08:53:12.045Z,101020.69
2022-08-05T08:56:04.083Z,101066.00
2022-08-05T08:58:43.228Z,101053.72
2022-08-05T09:01:16.345Z,101090.91
2022-08-05T09:03:55.222Z,101022.22
2022-08-05T09:06:29.019Z,101071.41
2022-08-05T09:08:59.098Z,101059.84
2022-08-05T09:11:53.430Z,101077.50
2022-08-05T09:14:58.768Z,101048.44
2022-08-05T09:17:01.314Z,101086.22
2022-08-05T09:19:36.569Z,101027.94
2022-08-05T09:22:23.205Z,101057.97
2022-08-05T09:25:00.894Z,101038.31
2022-08-05T09:28:05.540Z,101075.22
2022-08-05T09:30:23.729Z,101083.03
2022-08-05T09:32:51.677Z,101088.31
2022-08-05T09:35:26.948Z,101075.91
2022-08-05T09:38:12.516Z,101063.06
2022-08-05T09:40:51.888Z,101080.75
2022-08-05T09:43:54.458Z,101086.28
2022-08-05T09:46:58.115Z,101086.91
2022-08-05T09:50:00.823Z,101101.03
2022-08-05T09:52:52.785Z,101106.84
2022-08-05T09:55:57.053Z,101100.00
2022-08-05T09:58:50.188Z,101113.94
2022-08-05T10:01:39.701Z,101107.53
2022-08-05T10:04:34.966Z,101104.81
2022-08-05T10:07:50.457Z,101104.94
2022-08-05T10:10:32.465Z,101115.59
2022-08-05T10:13:21.305Z,101095.50
2022-08-05T10:16:09.254Z,101089.75
2022-08-05T10:18:57.356Z,101089.28
2022-08-05T10:21:24.549Z,101108.13
2022-08-05T10:24:00.055Z,101108.59
2022-08-05T10:26:32.604Z,101118.56
2022-08-05T10:29:01.212Z,101107.56
2022-08-05T10:32:53.762Z,101110.28
2022-08-05T10:34:16.986Z,101096.13
2022-08-05T10:37:04.385Z,101100.63
2022-08-05T10:39:59.442Z,101079.66
2022-08-05T10:42:57.686Z,101087.16
2022-08-05T10:45:47.845Z,101088.66
2022-08-05T10:49:01.551Z,101091.84
2022-08-05T10:52:15.257Z,101083.56
2022-08-05T10:55:22.702Z,101078.81
2022-08-05T10:58:23.472Z,101075.81
2022-08-05T11:01:55.012Z,101070.00
2022-08-05T11:04:42.258Z,101061.44
2022-08-05T11:07:33.305Z,101084.91
2022-08-05T11:10:50.200Z,101086.25
2022-08-05T11:14:03.751Z,101074.72
2022-08-05T11:16:47.547Z,101085.81
2022-08-05T11:20:10.642Z,101077.34
2022-08-05T11:22:43.017Z,101082.84
2022-08-05T11:26:06.105Z,101065.53
2022-08-05T11:28:18.781Z,101066.25
2022-08-05T11:30:58.718Z,101070.50
2022-08-05T11:33:48.754Z,101062.34
2022-08-05T11:36:34.420Z,101055.53
2022-08-05T11:39:07.055Z,101023.84
2022-08-05T11:42:00.904Z,101065.78
2022-08-05T11:44:40.926Z,101064.41
2022-08-05T11:47:49.985Z,101059.97
2022-08-05T11:50:10.581Z,101059.78
2022-08-05T11:52:44.018Z,101061.50
2022-08-05T11:55:13.594Z,101059.94
2022-08-05T11:58:09.532Z,101063.00
2022-08-05T12:00:38.342Z,101074.59
2022-08-05T12:03:28.467Z,101070.50
2022-08-05T12:06:03.183Z,101077.53
2022-08-05T12:08:33.837Z,101081.13
2022-08-05T12:11:06.015Z,101090.34
2022-08-05T12:13:48.374Z,101110.94
2022-08-05T12:16:27.058Z,101102.44
2022-08-05T12:18:54.925Z,101046.19
2022-08-05T12:21:33.591Z,101081.28
2022-08-05T12:24:14.185Z,101096.31
2022-08-05T12:26:52.882Z,101083.50
2022-08-05T12:29:38.744Z,101070.53
2022-08-05T12:32:07.545Z,101079.06
2022-08-05T12:34:38.573Z,101078.53
2022-08-05T12:37:17.033Z,101075.81
2022-08-05T12:39:51.105Z,101066.97
2022-08-05T12:42:20.911Z,101079.91
2022-08-05T12:44:48.264Z,101060.66
2022-08-05T12:47:28.643Z,101055.72
2022-08-05T12:50:03.448Z,101082.13
2022-08-05T12:52:41.838Z,101078.19
2022-08-05T12:55:40.491Z,101082.47
2022-08-05T12:58:48.494Z,101056.22
2022-08-05T13:02:03.366Z,101070.53
2022-08-05T13:04:00.880Z,101074.59
2022-08-05T13:06:29.436Z,101065.91
2022-08-05T13:08:57.552Z,101085.16
2022-08-05T13:12:01.233Z,101069.31
2022-08-05T13:14:40.164Z,101064.56
2022-08-05T13:17:50.410Z,101061.28
2022-08-05T13:20:40.511Z,101046.22
2022-08-05T13:23:27.633Z,101041.25
2022-08-05T13:26:14.556Z,101043.94
2022-08-05T13:28:44.159Z,101049.38
2022-08-05T13:31:14.305Z,101050.53
2022-08-05T13:34:21.143Z,101050.50
2022-08-05T13:36:29.517Z,101041.53
2022-08-05T13:40:13.041Z,101059.09
2022-08-05T13:42:23.771Z,101045.56
2022-08-05T13:44:56.587Z,101026.25
2022-08-05T13:47:35.588Z,101038.50
2022-08-05T13:50:16.792Z,101012.69
2022-08-05T13:52:44.141Z,101027.31
2022-08-05T13:55:41.523Z,101031.72
2022-08-05T13:58:04.149Z,101020.81
2022-08-05T14:00:32.022Z,101032.34
2022-08-05T14:03:01.195Z,101028.00
2022-08-05T14:05:48.304Z,100987.13
2022-08-05T14:08:20.095Z,101036.53
2022-08-05T14:11:20.980Z,101033.50
2022-08-05T14:13:49.237Z,101056.72
2022-08-05T14:16:22.426Z,101069.91
2022-08-05T14:18:49.814Z,101042.75
2022-08-05T14:22:07.896Z,101048.41
2022-08-05T14:24:04.483Z,101040.72
2022-08-05T14:26:36.921Z,101039.63
2022-08-05T14:29:16.126Z,101040.97
2022-08-05T14:32:02.217Z,101050.56
2022-08-05T14:34:35.132Z,101054.44
2022-08-05T14:37:04.312Z,101053.00
2022-08-05T14:39:50.294Z,101045.44
2022-08-05T14:42:29.272Z,101055.63
2022-08-05T14:44:56.817Z,101053.38
2022-08-05T14:48:03.475Z,101047.53
2022-08-05T14:50:17.836Z,101047.69
2022-08-05T14:52:58.297Z,101045.44
2022-08-05T14:55:28.749Z,101041.03
2022-08-05T14:58:11.691Z,101035.88
2022-08-05T15:00:58.708Z,100989.63
2022-08-05T15:03:33.110Z,101028.19
2022-08-05T15:06:27.894Z,101028.47
2022-08-05T15:09:51.115Z,101031.50
2022-08-05T15:12:26.935Z,101023.50
2022-08-05T15:15:15.644Z,101022.69
2022-08-05T15:18:03.668Z,101023.50
2022-08-05T15:20:52.646Z,101031.81
2022-08-05T15:23:40.101Z,101037.81
2022-08-05T15:26:31.925Z,101045.66
2022-08-05T15:29:19.533Z,101020.75
2022-08-05T15:32:08.846Z,101038.13
2022-08-05T15:34:55.926Z,101049.69
2022-08-05T15:38:34.668Z,101056.56
2022-08-05T15:41:20.294Z,101062.88
2022-08-05T15:43:58.825Z,101063.59
2022-08-05T15:46:45.801Z,101060.50
2022-08-05T15:49:48.077Z,101053.91
2022-08-05T15:52:54.626Z,101034.56
2022-08-05T15:56:01.884Z,101029.44
2022-08-05T15:58:49.680Z,101031.16
2022-08-05T16:01:39.749Z,101008.66
2022-08-05T16:04:39.178Z,101019.72
2022-08-05T16:07:26.284Z,101022.88
2022-08-05T16:10:16.764Z,101022.34
2022-08-05T16:13:10.376Z,101013.06
2022-08-05T16:15:58.201Z,101032.03
2022-08-05T16:18:52.479Z,101025.78
2022-08-05T16:21:59.547Z,101028.06
2022-08-05T16:24:51.590Z,101020.22
2022-08-05T16:27:59.740Z,101015.94
2022-08-05T16:30:46.445Z,100997.56
2022-08-05T16:33:41.759Z,100995.00
2022-08-05T16:36:29.676Z,101000.28
2022-08-05T16:39:16.689Z,100992.59
2022-08-05T16:42:15.179Z,100986.03
2022-08-05T16:46:02.752Z,100970.66
2022-08-05T16:48:25.375Z,100977.19
2022-08-05T16:51:13.805Z,100985.03
2022-08-05T16:54:16.097Z,100995.88
2022-08-05T16:57:06.729Z,100998.88
2022-08-05T17:00:10.540Z,100992.88
2022-08-05T17:02:57.699Z,100996.75
2022-08-05T17:05:47.828Z,100960.41
2022-08-05T17:08:52.942Z,101003.88
2022-08-05T17:11:48.261Z,100999.75
2022-08-05T17:14:37.633Z,100984.19
2022-08-05T17:17:27.262Z,100981.47
2022-08-05T17:20:30.614Z,100976.34
2022-08-05T17:24:03.051Z,100971.66
2022-08-05T17:26:24.612Z,100932.34
2022-08-05T17:29:12.773Z,100986.19
2022-08-05T17:32:00.404Z,100966.81
2022-08-05T17:34:49.095Z,100979.63
2022-08-05T17:37:40.362Z,100936.06
2022-08-05T17:40:32.006Z,100972.94
2022-08-05T17:43:19.406Z,100972.22
2022-08-05T17:46:26.538Z,100914.97
2022-08-05T17:49:13.549Z,100957.28
2022-08-05T17:52:01.956Z,100976.38
2022-08-05T17:54:48.988Z,100976.50
2022-08-05T17:57:37.859Z,100933.63
2022-08-05T18:00:30.897Z,100966.94
2022-08-05T18:03:56.550Z,100970.66
2022-08-05T18:06:29.221Z,100963.69
2022-08-05T18:09:18.078Z,100956.13
2022-08-05T18:12:05.075Z,100953.72
2022-08-05T18:14:32.121Z,100946.44
2022-08-05T18:16:59.411Z,100924.09
2022-08-05T18:19:27.144Z,100932.38
2022-08-05T18:22:08.368Z,100922.06
2022-08-05T18:24:39.744Z,100950.84
2022-08-05T18:27:12.403Z,100948.13
2022-08-05T18:29:51.938Z,100948.09
2022-08-05T18:32:20.844Z,100954.81
2022-08-05T18:34:55.186Z,100949.69
2022-08-05T18:37:33.633Z,100934.59
2022-08-05T18:40:33.985Z,100925.13
2022-08-05T18:42:56.708Z,100931.97
2022-08-05T18:45:24.803Z,100857.63
2022-08-05T18:47:56.638Z,100938.91
2022-08-05T18:50:46.314Z,100944.84
2022-08-05T18:53:20.491Z,100949.09
2022-08-05T18:55:51.690Z,100945.09
2022-08-05T18:58:18.773Z,100956.31
2022-08-05T19:00:54.217Z,100957.59
2022-08-05T19:03:52.694Z,100957.25
2022-08-05T19:06:19.038Z,100937.09
2022-08-05T19:08:49.670Z,100964.47
2022-08-05T19:11:28.071Z,100964.00
2022-08-05T19:14:00.703Z,100948.75
2022-08-05T19:16:36.702Z,100959.28
2022-08-05T19:19:14.572Z,100966.78
2022-08-05T19:21:41.672Z,100967.19
2022-08-05T19:24:12.645Z,100963.78
2022-08-05T19:26:55.009Z,100957.03
2022-08-05T19:29:26.535Z,100968.22
2022-08-05T19:32:03.487Z,100948.94
2022-08-05T19:34:31.684Z,100977.09
2022-08-05T19:36:58.616Z,100957.56
2022-08-05T19:39:28.359Z,100963.28
2022-08-05T19:42:07.220Z,100969.81
2022-08-05T19:44:44.608Z,100963.66
2022-08-05T19:47:16.140Z,100967.63
2022-08-05T19:49:44.634Z,100966.06
2022-08-05T19:52:31.068Z,100963.50
2022-08-05T19:55:00.652Z,100967.28
2022-08-05T19:57:47.446Z,100960.31
2022-08-05T20:00:21.349Z,100960.59
2022-08-05T20:02:48.250Z,100919.13
2022-08-05T20:05:16.432Z,100918.53
2022-08-05T20:07:56.285Z,100946.03
2022-08-05T20:10:25.966Z,100961.63
2022-08-05T20:12:53.143Z,100963.47
2022-08-05T20:15:48.836Z,100961.88
2022-08-05T20:18:10.723Z,100968.13
2022-08-05T20:20:57.084Z,100953.34
2022-08-05T20:23:40.342Z,100980.91
2022-08-05T20:26:15.417Z,100981.03
2022-08-05T20:28:48.800Z,100990.06
2022-08-05T20:31:17.095Z,100974.06
2022-08-05T20:33:45.264Z,101004.56
2022-08-05T20:36:14.255Z,101005.06
2022-08-05T20:38:53.780Z,100996.59
2022-08-05T20:41:26.833Z,100983.63
2022-08-05T20:43:59.824Z,100982.03
2022-08-05T20:46:30.220Z,100995.16
2022-08-05T20:48:57.178Z,100998.69
2022-08-05T20:51:24.130Z,100989.75
2022-08-05T20:53:56.486Z,100990.72
2022-08-05T20:56:31.890Z,100966.09
2022-08-05T20:59:11.302Z,100945.31
2022-08-05T21:01:41.628Z,100939.59
2022-08-05T21:04:10.869Z,100960.97
2022-08-05T21:06:45.887Z,100954.59
2022-08-05T21:09:14.805Z,100969.06
2022-08-05T21:12:08.080Z,100961.97
2022-08-05T21:14:34.777Z,100978.25
2022-08-05T21:17:05.522Z,100968.84
2022-08-05T21:19:47.606Z,100962.22
2022-08-05T21:22:18.673Z,100963.22
2022-08-05T21:24:51.993Z,100968.72
2022-08-05T21:27:25.531Z,100968.13
2022-08-05T21:29:58.440Z,100973.38
2022-08-05T21:32:29.234Z,100971.81
2022-08-05T21:35:17.759Z,100900.09
2022-08-05T21:37:47.269Z,100969.47
2022-08-05T21:40:20.254Z,100979.25
2022-08-05T21:42:47.608Z,100961.38
2022-08-05T21:45:24.600Z,100958.94
2022-08-05T21:48:06.277Z,100967.72
2022-08-05T21:50:33.845Z,100933.22
2022-08-05T21:53:27.742Z,100967.16
2022-08-05T21:56:17.340Z,100981.97
2022-08-05T21:59:07.938Z,100955.91
2022-08-05T22:01:55.290Z,100991.03
2022-08-05T22:04:42.197Z,100980.38
2022-08-05T22:07:40.508Z,100977.69
2022-08-05T22:10:37.947Z,100967.75
2022-08-05T22:14:34.176Z,100973.25
2022-08-05T22:16:41.945Z,100966.41
2022-08-05T22:20:01.750Z,100959.06
2022-08-05T22:22:45.721Z,100940.34
2022-08-05T22:26:11.129Z,100877.47
2022-08-05T22:28:39.182Z,100921.00
2022-08-05T22:31:29.937Z,100939.72
2022-08-05T22:34:20.107Z,100947.19
2022-08-05T22:37:15.635Z,100956.41
2022-08-05T22:40:02.696Z,100942.44
2022-08-05T22:42:57.814Z,100938.28
2022-08-05T22:45:45.520Z,100923.13
2022-08-05T22:48:33.102Z,100938.41
2022-08-05T22:51:23.175Z,100891.09
2022-08-05T22:54:17.161Z,100946.13
2022-08-05T22:57:04.150Z,100940.25
2022-08-05T22:59:54.051Z,100943.06
2022-08-05T23:02:46.615Z,100952.28
2022-08-05T23:05:36.686Z,100951.66
2022-08-05T23:08:26.197Z,100955.72
2022-08-05T23:11:14.853Z,100944.19
2022-08-05T23:14:02.633Z,100943.47
2022-08-05T23:16:48.773Z,100909.94
2022-08-05T23:19:50.776Z,100939.19
2022-08-05T23:22:47.084Z,100911.78
2022-08-05T23:25:53.572Z,100929.78
2022-08-05T23:28:44.486Z,100927.19
2022-08-05T23:31:31.707Z,100935.88
2022-08-05T23:34:24.863Z,100934.16
2022-08-05T23:37:12.001Z,100958.50
2022-08-05T23:39:59.058Z,100958.63
2022-08-05T23:42:47.366Z,100955.22
2022-08-05T23:45:34.535Z,100965.00
2022-08-05T23:48:22.394Z,100962.03
2022-08-05T23:51:15.227Z,100964.50
2022-08-05T23:54:02.912Z,100933.97
2022-08-05T23:56:49.905Z,100958.53
